Terminal Aerodrome Forecast
Issued by NWS

Home | Current Version | Previous Version | Text Only | Print | Product List | Glossary On
Versions: 1 2 3 4 5 6 7 8 9 10 11 12 13 14
997
FTUS46 KSTO 302320
TAFSAC
TAF
KSAC 302320Z 0100/0124 35015G25KT P6SM SKC
     FM010100 36010G20KT P6SM SKC
     FM010600 34010G15KT P6SM SKC
     FM011200 34010KT P6SM FEW250=

USA.gov is the U.S. government's official web portal to all federal, state and local government web resources and services.